sensor_id;sensor_type;location;lat;lon;timestamp;pressure;altitude;pressure_sealevel;temperature
75273;BMP280;63869;52.344;16.928;2024-03-23T00:53:12;99900.63;;;12.22
75273;BMP280;63869;52.344;16.928;2024-03-23T00:55:37;99871.53;;;12.11
75273;BMP280;63869;52.344;16.928;2024-03-23T00:58:03;99892.50;;;12.26
75273;BMP280;63869;52.344;16.928;2024-03-23T01:00:28;99884.38;;;12.17
75273;BMP280;63869;52.344;16.928;2024-03-23T01:02:54;99889.50;;;12.24
75273;BMP280;63869;52.344;16.928;2024-03-23T01:05:19;99896.66;;;12.27
75273;BMP280;63869;52.344;16.928;2024-03-23T01:07:44;99882.94;;;12.25
75273;BMP280;63869;52.344;16.928;2024-03-23T01:10:10;99887.78;;;12.30
75273;BMP280;63869;52.344;16.928;2024-03-23T01:12:35;99886.59;;;12.31
75273;BMP280;63869;52.344;16.928;2024-03-23T01:15:00;99878.88;;;12.33
75273;BMP280;63869;52.344;16.928;2024-03-23T01:17:25;99857.94;;;12.28
75273;BMP280;63869;52.344;16.928;2024-03-23T01:19:51;99868.44;;;12.35
75273;BMP280;63869;52.344;16.928;2024-03-23T01:22:16;99859.16;;;12.27
75273;BMP280;63869;52.344;16.928;2024-03-23T01:24:41;99865.31;;;12.36
75273;BMP280;63869;52.344;16.928;2024-03-23T01:27:08;99858.47;;;12.35
75273;BMP280;63869;52.344;16.928;2024-03-23T01:29:33;99832.03;;;12.25
75273;BMP280;63869;52.344;16.928;2024-03-23T01:31:59;99835.16;;;12.23
75273;BMP280;63869;52.344;16.928;2024-03-23T01:34:24;99861.03;;;12.39
75273;BMP280;63869;52.344;16.928;2024-03-23T01:36:50;99844.78;;;12.33
75273;BMP280;63869;52.344;16.928;2024-03-23T01:39:15;99825.91;;;12.24
75273;BMP280;63869;52.344;16.928;2024-03-23T01:41:42;99844.94;;;12.39
75273;BMP280;63869;52.344;16.928;2024-03-23T01:44:08;99845.00;;;12.48
75273;BMP280;63869;52.344;16.928;2024-03-23T01:46:35;99834.72;;;12.46
75273;BMP280;63869;52.344;16.928;2024-03-23T01:49:01;99822.00;;;12.38
75273;BMP280;63869;52.344;16.928;2024-03-23T01:51:27;99830.97;;;12.44
75273;BMP280;63869;52.344;16.928;2024-03-23T01:53:54;99800.19;;;12.27
75273;BMP280;63869;52.344;16.928;2024-03-23T01:56:20;99808.34;;;12.45
75273;BMP280;63869;52.344;16.928;2024-03-23T01:58:45;99789.53;;;12.36
75273;BMP280;63869;52.344;16.928;2024-03-23T02:01:11;99805.09;;;12.50
75273;BMP280;63869;52.344;16.928;2024-03-23T02:03:38;99812.28;;;12.53
75273;BMP280;63869;52.344;16.928;2024-03-23T02:06:03;99812.56;;;12.55
75273;BMP280;63869;52.344;16.928;2024-03-23T02:08:31;99779.72;;;12.42
75273;BMP280;63869;52.344;16.928;2024-03-23T02:10:56;99799.47;;;12.57
75273;BMP280;63869;52.344;16.928;2024-03-23T02:13:23;99791.69;;;12.50
75273;BMP280;63869;52.344;16.928;2024-03-23T02:15:49;99803.41;;;12.65
75273;BMP280;63869;52.344;16.928;2024-03-23T02:18:14;99803.19;;;12.60
75273;BMP280;63869;52.344;16.928;2024-03-23T02:20:39;99795.50;;;12.62
75273;BMP280;63869;52.344;16.928;2024-03-23T02:23:05;99786.00;;;12.48
75273;BMP280;63869;52.344;16.928;2024-03-23T02:25:33;99787.06;;;12.51
75273;BMP280;63869;52.344;16.928;2024-03-23T02:27:59;99790.97;;;12.59
75273;BMP280;63869;52.344;16.928;2024-03-23T02:30:25;99786.06;;;12.57
75273;BMP280;63869;52.344;16.928;2024-03-23T02:32:51;99774.84;;;12.49
75273;BMP280;63869;52.344;16.928;2024-03-23T02:35:16;99782.03;;;12.53
75273;BMP280;63869;52.344;16.928;2024-03-23T02:37:42;99779.78;;;12.51
75273;BMP280;63869;52.344;16.928;2024-03-23T02:40:07;99783.38;;;12.57
75273;BMP280;63869;52.344;16.928;2024-03-23T02:42:32;99769.66;;;12.55
75273;BMP280;63869;52.344;16.928;2024-03-23T02:44:58;99759.19;;;12.48
75273;BMP280;63869;52.344;16.928;2024-03-23T02:47:25;99768.69;;;12.62
75273;BMP280;63869;52.344;16.928;2024-03-23T02:49:50;99765.34;;;12.58
75273;BMP280;63869;52.344;16.928;2024-03-23T02:52:15;99754.53;;;12.61
75273;BMP280;63869;52.344;16.928;2024-03-23T02:54:41;99756.56;;;12.57
75273;BMP280;63869;52.344;16.928;2024-03-23T02:57:10;99757.06;;;12.65
75273;BMP280;63869;52.344;16.928;2024-03-23T02:59:35;99747.09;;;12.65
75273;BMP280;63869;52.344;16.928;2024-03-23T03:02:01;99734.19;;;12.51
75273;BMP280;63869;52.344;16.928;2024-03-23T03:04:29;99751.50;;;12.59
75273;BMP280;63869;52.344;16.928;2024-03-23T03:06:55;99729.72;;;12.48
75273;BMP280;63869;52.344;16.928;2024-03-23T03:09:20;99731.69;;;12.57
75273;BMP280;63869;52.344;16.928;2024-03-23T03:11:46;99741.06;;;12.52
75273;BMP280;63869;52.344;16.928;2024-03-23T03:14:11;99736.88;;;12.51
75273;BMP280;63869;52.344;16.928;2024-03-23T03:16:37;99723.03;;;12.53
75273;BMP280;63869;52.344;16.928;2024-03-23T03:19:02;99732.75;;;12.59
75273;BMP280;63869;52.344;16.928;2024-03-23T03:21:28;99707.81;;;12.49
75273;BMP280;63869;52.344;16.928;2024-03-23T03:23:54;99722.00;;;12.59
75273;BMP280;63869;52.344;16.928;2024-03-23T03:26:21;99722.19;;;12.65
75273;BMP280;63869;52.344;16.928;2024-03-23T03:28:46;99715.00;;;12.53
75273;BMP280;63869;52.344;16.928;2024-03-23T03:31:15;99717.41;;;12.60
75273;BMP280;63869;52.344;16.928;2024-03-23T03:33:41;99683.56;;;12.53
75273;BMP280;63869;52.344;16.928;2024-03-23T03:36:07;99674.31;;;12.45
75273;BMP280;63869;52.344;16.928;2024-03-23T03:38:32;99662.97;;;12.41
75273;BMP280;63869;52.344;16.928;2024-03-23T03:41:00;99692.97;;;12.58
75273;BMP280;63869;52.344;16.928;2024-03-23T03:43:25;99658.78;;;12.40
75273;BMP280;63869;52.344;16.928;2024-03-23T03:45:54;99700.75;;;12.65
75273;BMP280;63869;52.344;16.928;2024-03-23T03:48:20;99670.09;;;12.44
75273;BMP280;63869;52.344;16.928;2024-03-23T03:50:45;99707.91;;;12.68
75273;BMP280;63869;52.344;16.928;2024-03-23T03:53:11;99690.72;;;12.56
75273;BMP280;63869;52.344;16.928;2024-03-23T03:55:36;99691.19;;;12.55
75273;BMP280;63869;52.344;16.928;2024-03-23T03:58:02;99705.78;;;12.63
75273;BMP280;63869;52.344;16.928;2024-03-23T04:00:27;99705.19;;;12.59
75273;BMP280;63869;52.344;16.928;2024-03-23T04:02:52;99698.00;;;12.46
75273;BMP280;63869;52.344;16.928;2024-03-23T04:05:17;99693.19;;;12.41
75273;BMP280;63869;52.344;16.928;2024-03-23T04:07:44;99691.53;;;12.35
75273;BMP280;63869;52.344;16.928;2024-03-23T04:10:09;99693.03;;;12.36
75273;BMP280;63869;52.344;16.928;2024-03-23T04:12:35;99686.91;;;12.35
75273;BMP280;63869;52.344;16.928;2024-03-23T04:15:01;99678.88;;;12.35
75273;BMP280;63869;52.344;16.928;2024-03-23T04:17:29;99686.63;;;12.42
75273;BMP280;63869;52.344;16.928;2024-03-23T04:19:57;99684.84;;;12.39
75273;BMP280;63869;52.344;16.928;2024-03-23T04:22:23;99696.81;;;12.47
75273;BMP280;63869;52.344;16.928;2024-03-23T04:24:57;99687.13;;;12.50
75273;BMP280;63869;52.344;16.928;2024-03-23T04:27:23;99699.66;;;12.53
75273;BMP280;63869;52.344;16.928;2024-03-23T04:29:52;99694.00;;;12.51
75273;BMP280;63869;52.344;16.928;2024-03-23T04:32:20;99666.06;;;12.30
75273;BMP280;63869;52.344;16.928;2024-03-23T04:34:45;99677.53;;;12.31
75273;BMP280;63869;52.344;16.928;2024-03-23T04:37:11;99684.22;;;12.35
75273;BMP280;63869;52.344;16.928;2024-03-23T04:39:36;99681.44;;;12.39
75273;BMP280;63869;52.344;16.928;2024-03-23T04:42:02;99669.34;;;12.34
75273;BMP280;63869;52.344;16.928;2024-03-23T04:44:28;99668.34;;;12.41
75273;BMP280;63869;52.344;16.928;2024-03-23T04:46:54;99670.84;;;12.35
75273;BMP280;63869;52.344;16.928;2024-03-23T04:49:19;99670.19;;;12.22
75273;BMP280;63869;52.344;16.928;2024-03-23T04:51:44;99677.63;;;11.96
75273;BMP280;63869;52.344;16.928;2024-03-23T04:54:14;99657.16;;;11.59
75273;BMP280;63869;52.344;16.928;2024-03-23T04:56:40;99647.78;;;11.20
75273;BMP280;63869;52.344;16.928;2024-03-23T04:59:05;99652.41;;;10.94
75273;BMP280;63869;52.344;16.928;2024-03-23T05:01:31;99648.91;;;10.71
75273;BMP280;63869;52.344;16.928;2024-03-23T05:03:57;99594.31;;;10.34
75273;BMP280;63869;52.344;16.928;2024-03-23T05:06:23;99631.47;;;10.54
75273;BMP280;63869;52.344;16.928;2024-03-23T05:08:48;99593.22;;;10.32
75273;BMP280;63869;52.344;16.928;2024-03-23T05:11:13;99593.84;;;10.36
75273;BMP280;63869;52.344;16.928;2024-03-23T05:13:39;99611.72;;;10.39
75273;BMP280;63869;52.344;16.928;2024-03-23T05:16:04;99624.47;;;10.60
75273;BMP280;63869;52.344;16.928;2024-03-23T05:18:30;99611.94;;;10.57
75273;BMP280;63869;52.344;16.928;2024-03-23T05:20:56;99616.94;;;10.68
75273;BMP280;63869;52.344;16.928;2024-03-23T05:23:23;99618.34;;;10.73
75273;BMP280;63869;52.344;16.928;2024-03-23T05:25:48;99615.66;;;10.73
75273;BMP280;63869;52.344;16.928;2024-03-23T05:28:13;99607.22;;;10.61
75273;BMP280;63869;52.344;16.928;2024-03-23T05:30:38;99609.34;;;10.66
75273;BMP280;63869;52.344;16.928;2024-03-23T05:33:05;99610.22;;;10.63
75273;BMP280;63869;52.344;16.928;2024-03-23T05:35:30;99607.84;;;10.65
75273;BMP280;63869;52.344;16.928;2024-03-23T05:37:55;99623.59;;;10.76
75273;BMP280;63869;52.344;16.928;2024-03-23T05:40:21;99613.19;;;10.78
75273;BMP280;63869;52.344;16.928;2024-03-23T05:42:46;99623.78;;;10.82
75273;BMP280;63869;52.344;16.928;2024-03-23T05:45:11;99618.84;;;10.80
75273;BMP280;63869;52.344;16.928;2024-03-23T05:47:37;99614.50;;;10.74
75273;BMP280;63869;52.344;16.928;2024-03-23T05:50:03;99570.06;;;10.42
75273;BMP280;63869;52.344;16.928;2024-03-23T05:52:28;99594.19;;;10.63
75273;BMP280;63869;52.344;16.928;2024-03-23T05:54:54;99621.72;;;10.86
75273;BMP280;63869;52.344;16.928;2024-03-23T05:57:20;99606.41;;;10.86
75273;BMP280;63869;52.344;16.928;2024-03-23T05:59:45;99601.00;;;10.90
75273;BMP280;63869;52.344;16.928;2024-03-23T06:02:12;99613.91;;;11.04
75273;BMP280;63869;52.344;16.928;2024-03-23T06:04:37;99589.94;;;11.00
75273;BMP280;63869;52.344;16.928;2024-03-23T06:07:04;99609.03;;;11.12
75273;BMP280;63869;52.344;16.928;2024-03-23T06:09:31;99609.19;;;11.08
75273;BMP280;63869;52.344;16.928;2024-03-23T06:11:56;99592.38;;;11.08
75273;BMP280;63869;52.344;16.928;2024-03-23T06:14:22;99587.47;;;11.06
75273;BMP280;63869;52.344;16.928;2024-03-23T06:16:47;99595.75;;;11.21
75273;BMP280;63869;52.344;16.928;2024-03-23T06:19:12;99618.84;;;11.27
75273;BMP280;63869;52.344;16.928;2024-03-23T06:21:43;99615.97;;;11.22
75273;BMP280;63869;52.344;16.928;2024-03-23T06:24:09;99612.63;;;11.30
75273;BMP280;63869;52.344;16.928;2024-03-23T06:26:34;99608.03;;;11.31
75273;BMP280;63869;52.344;16.928;2024-03-23T06:28:59;99595.34;;;11.22
75273;BMP280;63869;52.344;16.928;2024-03-23T06:31:25;99595.94;;;11.26
75273;BMP280;63869;52.344;16.928;2024-03-23T06:33:51;99582.38;;;11.21
75273;BMP280;63869;52.344;16.928;2024-03-23T06:36:16;99573.03;;;11.25
75273;BMP280;63869;52.344;16.928;2024-03-23T06:38:42;99576.78;;;11.28
75273;BMP280;63869;52.344;16.928;2024-03-23T06:41:08;99557.72;;;11.26
75273;BMP280;63869;52.344;16.928;2024-03-23T06:43:33;99583.78;;;11.34
75273;BMP280;63869;52.344;16.928;2024-03-23T06:45:58;99569.63;;;11.25
75273;BMP280;63869;52.344;16.928;2024-03-23T06:48:24;99577.63;;;11.25
75273;BMP280;63869;52.344;16.928;2024-03-23T06:50:49;99538.31;;;10.91
75273;BMP280;63869;52.344;16.928;2024-03-23T06:53:15;99567.91;;;11.18
75273;BMP280;63869;52.344;16.928;2024-03-23T06:55:41;99562.47;;;11.22
75273;BMP280;63869;52.344;16.928;2024-03-23T06:58:12;99530.13;;;11.07
75273;BMP280;63869;52.344;16.928;2024-03-23T07:00:37;99545.16;;;11.14
75273;BMP280;63869;52.344;16.928;2024-03-23T07:03:03;99541.69;;;11.04
75273;BMP280;63869;52.344;16.928;2024-03-23T07:05:30;99537.16;;;11.01
75273;BMP280;63869;52.344;16.928;2024-03-23T07:07:55;99533.28;;;10.93
75273;BMP280;63869;52.344;16.928;2024-03-23T07:10:20;99541.47;;;10.98
75273;BMP280;63869;52.344;16.928;2024-03-23T07:12:46;99561.69;;;10.99
75273;BMP280;63869;52.344;16.928;2024-03-23T07:15:11;99551.84;;;10.96
75273;BMP280;63869;52.344;16.928;2024-03-23T07:17:36;99544.00;;;11.02
75273;BMP280;63869;52.344;16.928;2024-03-23T07:20:02;99540.69;;;11.11
75273;BMP280;63869;52.344;16.928;2024-03-23T07:22:32;99517.94;;;11.06
75273;BMP280;63869;52.344;16.928;2024-03-23T07:25:00;99522.09;;;11.07
75273;BMP280;63869;52.344;16.928;2024-03-23T07:27:26;99479.75;;;11.05
75273;BMP280;63869;52.344;16.928;2024-03-23T07:29:51;99472.75;;;11.30
75273;BMP280;63869;52.344;16.928;2024-03-23T07:32:16;99504.47;;;11.40
75273;BMP280;63869;52.344;16.928;2024-03-23T07:34:42;99488.72;;;11.43
75273;BMP280;63869;52.344;16.928;2024-03-23T07:37:09;99495.84;;;11.36
75273;BMP280;63869;52.344;16.928;2024-03-23T07:39:35;99521.00;;;11.48
75273;BMP280;63869;52.344;16.928;2024-03-23T07:42:00;99531.22;;;11.40
75273;BMP280;63869;52.344;16.928;2024-03-23T07:44:25;99527.94;;;11.36
75273;BMP280;63869;52.344;16.928;2024-03-23T07:46:50;99526.56;;;11.32
75273;BMP280;63869;52.344;16.928;2024-03-23T07:49:17;99524.28;;;11.21
75273;BMP280;63869;52.344;16.928;2024-03-23T07:51:43;99513.50;;;11.12
75273;BMP280;63869;52.344;16.928;2024-03-23T07:54:09;99488.44;;;10.97
75273;BMP280;63869;52.344;16.928;2024-03-23T07:56:35;99497.78;;;11.01
75273;BMP280;63869;52.344;16.928;2024-03-23T07:59:00;99499.63;;;11.04
75273;BMP280;63869;52.344;16.928;2024-03-23T08:01:25;99489.78;;;11.01
75273;BMP280;63869;52.344;16.928;2024-03-23T08:03:51;99486.66;;;11.03
75273;BMP280;63869;52.344;16.928;2024-03-23T08:06:17;99463.53;;;10.87
75273;BMP280;63869;52.344;16.928;2024-03-23T08:08:46;99449.25;;;10.81
75273;BMP280;63869;52.344;16.928;2024-03-23T08:11:12;99448.47;;;11.02
75273;BMP280;63869;52.344;16.928;2024-03-23T08:13:39;99418.22;;;11.05
75273;BMP280;63869;52.344;16.928;2024-03-23T08:16:05;99386.66;;;10.91
75273;BMP280;63869;52.344;16.928;2024-03-23T08:18:30;99405.28;;;11.04
75273;BMP280;63869;52.344;16.928;2024-03-23T08:21:04;99405.63;;;11.15
75273;BMP280;63869;52.344;16.928;2024-03-23T08:23:30;99437.88;;;11.43
75273;BMP280;63869;52.344;16.928;2024-03-23T08:26:00;99431.66;;;11.55
75273;BMP280;63869;52.344;16.928;2024-03-23T08:28:25;99434.78;;;11.84
75273;BMP280;63869;52.344;16.928;2024-03-23T08:30:52;99420.63;;;11.93
75273;BMP280;63869;52.344;16.928;2024-03-23T08:33:17;99405.59;;;11.95
75273;BMP280;63869;52.344;16.928;2024-03-23T08:35:42;99418.84;;;11.99
75273;BMP280;63869;52.344;16.928;2024-03-23T08:38:07;99425.69;;;11.91
75273;BMP280;63869;52.344;16.928;2024-03-23T08:40:32;99433.28;;;11.83
75273;BMP280;63869;52.344;16.928;2024-03-23T08:42:58;99422.97;;;11.72
75273;BMP280;63869;52.344;16.928;2024-03-23T08:45:24;99419.03;;;11.55
75273;BMP280;63869;52.344;16.928;2024-03-23T08:47:49;99419.88;;;11.43
75273;BMP280;63869;52.344;16.928;2024-03-23T08:50:15;99410.34;;;11.42
75273;BMP280;63869;52.344;16.928;2024-03-23T08:52:40;99404.72;;;11.49
75273;BMP280;63869;52.344;16.928;2024-03-23T08:55:05;99394.66;;;11.53
75273;BMP280;63869;52.344;16.928;2024-03-23T08:57:30;99375.31;;;11.58
75273;BMP280;63869;52.344;16.928;2024-03-23T08:59:57;99370.72;;;11.59
75273;BMP280;63869;52.344;16.928;2024-03-23T09:02:22;99371.75;;;11.52
75273;BMP280;63869;52.344;16.928;2024-03-23T09:04:47;99386.13;;;11.36
75273;BMP280;63869;52.344;16.928;2024-03-23T09:07:12;99379.53;;;11.28
75273;BMP280;63869;52.344;16.928;2024-03-23T09:09:38;99380.66;;;11.18
75273;BMP280;63869;52.344;16.928;2024-03-23T09:12:03;99380.66;;;11.18
75273;BMP280;63869;52.344;16.928;2024-03-23T09:14:29;99369.22;;;11.18
75273;BMP280;63869;52.344;16.928;2024-03-23T09:16:55;99377.44;;;11.23
75273;BMP280;63869;52.344;16.928;2024-03-23T09:19:20;99375.81;;;11.26
75273;BMP280;63869;52.344;16.928;2024-03-23T09:21:49;99364.34;;;11.25
75273;BMP280;63869;52.344;16.928;2024-03-23T09:24:14;99369.28;;;11.27
75273;BMP280;63869;52.344;16.928;2024-03-23T09:26:39;99368.97;;;11.25
75273;BMP280;63869;52.344;16.928;2024-03-23T09:29:05;99352.25;;;11.12
75273;BMP280;63869;52.344;16.928;2024-03-23T09:31:31;99357.56;;;11.02
75273;BMP280;63869;52.344;16.928;2024-03-23T09:33:58;99363.50;;;10.97
75273;BMP280;63869;52.344;16.928;2024-03-23T09:36:23;99366.44;;;10.90
75273;BMP280;63869;52.344;16.928;2024-03-23T09:38:49;99362.72;;;10.88
75273;BMP280;63869;52.344;16.928;2024-03-23T09:41:14;99355.25;;;10.83
75273;BMP280;63869;52.344;16.928;2024-03-23T09:43:40;99346.31;;;10.77
75273;BMP280;63869;52.344;16.928;2024-03-23T09:46:05;99324.31;;;10.73
75273;BMP280;63869;52.344;16.928;2024-03-23T09:48:30;99323.56;;;10.72
75273;BMP280;63869;52.344;16.928;2024-03-23T09:50:56;99327.66;;;10.64
75273;BMP280;63869;52.344;16.928;2024-03-23T09:53:21;99333.66;;;10.55
75273;BMP280;63869;52.344;16.928;2024-03-23T09:55:47;99326.00;;;10.57
75273;BMP280;63869;52.344;16.928;2024-03-23T09:58:14;99330.16;;;10.58
75273;BMP280;63869;52.344;16.928;2024-03-23T10:00:39;99322.56;;;10.57
75273;BMP280;63869;52.344;16.928;2024-03-23T10:03:04;99326.00;;;10.57
75273;BMP280;63869;52.344;16.928;2024-03-23T10:05:31;99315.63;;;10.59
75273;BMP280;63869;52.344;16.928;2024-03-23T10:07:57;99313.38;;;10.58
75273;BMP280;63869;52.344;16.928;2024-03-23T10:10:22;99311.16;;;10.56
75273;BMP280;63869;52.344;16.928;2024-03-23T10:12:50;99315.88;;;10.52
75273;BMP280;63869;52.344;16.928;2024-03-23T10:15:22;99313.19;;;10.52
75273;BMP280;63869;52.344;16.928;2024-03-23T10:17:47;99304.66;;;10.45
75273;BMP280;63869;52.344;16.928;2024-03-23T10:20:12;99302.88;;;10.42
75273;BMP280;63869;52.344;16.928;2024-03-23T10:22:38;99289.97;;;10.40
75273;BMP280;63869;52.344;16.928;2024-03-23T10:25:09;99294.13;;;10.41
75273;BMP280;63869;52.344;16.928;2024-03-23T10:27:34;99285.59;;;10.33
75273;BMP280;63869;52.344;16.928;2024-03-23T10:30:08;99298.81;;;10.37
75273;BMP280;63869;52.344;16.928;2024-03-23T10:32:34;99292.22;;;10.42
75273;BMP280;63869;52.344;16.928;2024-03-23T10:35:16;99260.56;;;10.18
75273;BMP280;63869;52.344;16.928;2024-03-23T10:37:44;99293.47;;;10.37
75273;BMP280;63869;52.344;16.928;2024-03-23T10:40:11;99287.53;;;10.33
75273;BMP280;63869;52.344;16.928;2024-03-23T10:42:37;99270.00;;;10.32
75273;BMP280;63869;52.344;16.928;2024-03-23T10:45:06;99257.25;;;10.27
75273;BMP280;63869;52.344;16.928;2024-03-23T10:47:35;99269.88;;;10.35
75273;BMP280;63869;52.344;16.928;2024-03-23T10:50:04;99260.94;;;10.29
75273;BMP280;63869;52.344;16.928;2024-03-23T10:52:33;99245.06;;;10.26
75273;BMP280;63869;52.344;16.928;2024-03-23T10:55:00;99226.38;;;10.26
75273;BMP280;63869;52.344;16.928;2024-03-23T10:57:34;99236.94;;;10.39
75273;BMP280;63869;52.344;16.928;2024-03-23T11:00:02;99238.09;;;10.28
75273;BMP280;63869;52.344;16.928;2024-03-23T11:02:28;99252.50;;;10.31
75273;BMP280;63869;52.344;16.928;2024-03-23T11:04:55;99237.28;;;10.19
75273;BMP280;63869;52.344;16.928;2024-03-23T11:09:48;99228.06;;;10.20
75273;BMP280;63869;52.344;16.928;2024-03-23T11:15:11;99212.59;;;10.58
75273;BMP280;63869;52.344;16.928;2024-03-23T11:17:37;99189.00;;;10.66
75273;BMP280;63869;52.344;16.928;2024-03-23T11:20:03;99213.59;;;10.92
75273;BMP280;63869;52.344;16.928;2024-03-23T11:22:43;99207.69;;;11.06
75273;BMP280;63869;52.344;16.928;2024-03-23T11:25:19;99193.44;;;11.27
75273;BMP280;63869;52.344;16.928;2024-03-23T11:27:49;99185.88;;;11.26
75273;BMP280;63869;52.344;16.928;2024-03-23T11:30:16;99174.41;;;11.16
75273;BMP280;63869;52.344;16.928;2024-03-23T11:32:42;99158.19;;;11.01
75273;BMP280;63869;52.344;16.928;2024-03-23T11:35:07;99163.06;;;10.94
75273;BMP280;63869;52.344;16.928;2024-03-23T11:37:35;99172.84;;;10.79
75273;BMP280;63869;52.344;16.928;2024-03-23T11:40:00;99162.25;;;10.66
75273;BMP280;63869;52.344;16.928;2024-03-23T11:42:26;99160.13;;;10.52
75273;BMP280;63869;52.344;16.928;2024-03-23T11:44:51;99152.94;;;10.40
75273;BMP280;63869;52.344;16.928;2024-03-23T11:47:17;99147.28;;;10.28
75273;BMP280;63869;52.344;16.928;2024-03-23T11:49:42;99142.91;;;10.22
75273;BMP280;63869;52.344;16.928;2024-03-23T11:52:07;99134.38;;;10.05
75273;BMP280;63869;52.344;16.928;2024-03-23T11:54:33;99129.47;;;10.04
75273;BMP280;63869;52.344;16.928;2024-03-23T11:56:59;99114.22;;;10.04
75273;BMP280;63869;52.344;16.928;2024-03-23T11:59:37;99104.72;;;10.03
75273;BMP280;63869;52.344;16.928;2024-03-23T12:02:07;99105.09;;;9.92
75273;BMP280;63869;52.344;16.928;2024-03-23T12:04:32;99111.16;;;9.84
75273;BMP280;63869;52.344;16.928;2024-03-23T12:07:10;99105.00;;;9.74
75273;BMP280;63869;52.344;16.928;2024-03-23T12:09:36;99094.31;;;9.74
75273;BMP280;63869;52.344;16.928;2024-03-23T12:12:17;99098.03;;;9.77
75273;BMP280;63869;52.344;16.928;2024-03-23T12:14:43;99110.34;;;9.74
75273;BMP280;63869;52.344;16.928;2024-03-23T12:17:15;99105.47;;;9.60
75273;BMP280;63869;52.344;16.928;2024-03-23T12:19:41;99104.00;;;9.59
75273;BMP280;63869;52.344;16.928;2024-03-23T12:22:06;99104.00;;;9.59
75273;BMP280;63869;52.344;16.928;2024-03-23T12:24:32;99099.31;;;9.63
75273;BMP280;63869;52.344;16.928;2024-03-23T12:26:59;99105.72;;;9.65
75273;BMP280;63869;52.344;16.928;2024-03-23T12:29:26;99082.13;;;9.64
75273;BMP280;63869;52.344;16.928;2024-03-23T12:31:51;99076.47;;;9.62
75273;BMP280;63869;52.344;16.928;2024-03-23T12:34:19;99067.28;;;9.63
75273;BMP280;63869;52.344;16.928;2024-03-23T12:36:47;99071.19;;;9.71
75273;BMP280;63869;52.344;16.928;2024-03-23T12:39:13;99067.66;;;9.74
75273;BMP280;63869;52.344;16.928;2024-03-23T12:41:41;99066.28;;;9.70
75273;BMP280;63869;52.344;16.928;2024-03-23T12:44:06;99058.28;;;9.70
75273;BMP280;63869;52.344;16.928;2024-03-23T12:46:33;99033.44;;;9.60
75273;BMP280;63869;52.344;16.928;2024-03-23T12:48:59;99041.66;;;9.65
75273;BMP280;63869;52.344;16.928;2024-03-23T12:51:24;99053.09;;;9.66
75273;BMP280;63869;52.344;16.928;2024-03-23T12:53:50;99047.28;;;9.68
75273;BMP280;63869;52.344;16.928;2024-03-23T12:56:15;99060.06;;;9.73
75273;BMP280;63869;52.344;16.928;2024-03-23T12:58:41;99055.78;;;9.75
75273;BMP280;63869;52.344;16.928;2024-03-23T13:01:06;99023.81;;;9.53
75273;BMP280;63869;52.344;16.928;2024-03-23T13:03:31;99046.41;;;9.71
75273;BMP280;63869;52.344;16.928;2024-03-23T13:05:57;99052.56;;;9.58
75273;BMP280;63869;52.344;16.928;2024-03-23T13:08:22;99079.38;;;9.55
75273;BMP280;63869;52.344;16.928;2024-03-23T13:10:51;99138.94;;;9.30
75273;BMP280;63869;52.344;16.928;2024-03-23T13:13:17;99198.84;;;9.13
75273;BMP280;63869;52.344;16.928;2024-03-23T13:15:42;99201.03;;;8.92
75273;BMP280;63869;52.344;16.928;2024-03-23T13:18:07;99201.50;;;8.37
75273;BMP280;63869;52.344;16.928;2024-03-23T13:20:35;99205.81;;;8.18
75273;BMP280;63869;52.344;16.928;2024-03-23T13:23:00;99208.88;;;7.87
75273;BMP280;63869;52.344;16.928;2024-03-23T13:25:26;99203.69;;;7.51
75273;BMP280;63869;52.344;16.928;2024-03-23T13:27:51;99214.00;;;7.49
75273;BMP280;63869;52.344;16.928;2024-03-23T13:30:16;99218.16;;;7.34
75273;BMP280;63869;52.344;16.928;2024-03-23T13:32:42;99211.19;;;7.40
75273;BMP280;63869;52.344;16.928;2024-03-23T13:35:07;99237.84;;;7.53
75273;BMP280;63869;52.344;16.928;2024-03-23T13:37:32;99256.88;;;7.51
75273;BMP280;63869;52.344;16.928;2024-03-23T13:39:59;99255.63;;;7.40
75273;BMP280;63869;52.344;16.928;2024-03-23T13:42:24;99241.06;;;7.12
75273;BMP280;63869;52.344;16.928;2024-03-23T13:44:51;99268.88;;;7.23
75273;BMP280;63869;52.344;16.928;2024-03-23T13:47:16;99295.69;;;7.13
75273;BMP280;63869;52.344;16.928;2024-03-23T13:49:41;99301.50;;;6.88
75273;BMP280;63869;52.344;16.928;2024-03-23T13:52:06;99305.25;;;6.51
75273;BMP280;63869;52.344;16.928;2024-03-23T13:54:32;99314.84;;;6.21
75273;BMP280;63869;52.344;16.928;2024-03-23T13:56:58;99313.84;;;6.15
75273;BMP280;63869;52.344;16.928;2024-03-23T13:59:23;99295.19;;;6.19
75273;BMP280;63869;52.344;16.928;2024-03-23T14:01:49;99305.22;;;6.08
75273;BMP280;63869;52.344;16.928;2024-03-23T14:04:15;99292.00;;;6.04
75273;BMP280;63869;52.344;16.928;2024-03-23T14:06:48;99319.78;;;6.00
75273;BMP280;63869;52.344;16.928;2024-03-23T14:09:13;99330.94;;;5.87
75273;BMP280;63869;52.344;16.928;2024-03-23T14:11:40;99327.47;;;5.90
75273;BMP280;63869;52.344;16.928;2024-03-23T14:14:08;99323.94;;;5.74
75273;BMP280;63869;52.344;16.928;2024-03-23T14:16:33;99341.00;;;5.73
75273;BMP280;63869;52.344;16.928;2024-03-23T14:18:59;99353.84;;;5.74
75273;BMP280;63869;52.344;16.928;2024-03-23T14:21:24;99358.47;;;5.67
75273;BMP280;63869;52.344;16.928;2024-03-23T14:23:50;99356.50;;;5.74
75273;BMP280;63869;52.344;16.928;2024-03-23T14:26:16;99352.97;;;5.84
75273;BMP280;63869;52.344;16.928;2024-03-23T14:28:41;99356.72;;;5.83
75273;BMP280;63869;52.344;16.928;2024-03-23T14:31:06;99369.09;;;5.93
75273;BMP280;63869;52.344;16.928;2024-03-23T14:33:36;99402.91;;;6.16
75273;BMP280;63869;52.344;16.928;2024-03-23T14:36:03;99418.09;;;6.12
75273;BMP280;63869;52.344;16.928;2024-03-23T14:38:29;99419.84;;;5.95
75273;BMP280;63869;52.344;16.928;2024-03-23T14:40:58;99447.78;;;6.04
75273;BMP280;63869;52.344;16.928;2024-03-23T14:43:24;99438.78;;;5.94
75273;BMP280;63869;52.344;16.928;2024-03-23T14:46:08;99456.97;;;5.95
75273;BMP280;63869;52.344;16.928;2024-03-23T14:48:34;99477.53;;;5.88
75273;BMP280;63869;52.344;16.928;2024-03-23T14:51:00;99485.38;;;5.95